CGNBR FOOL-FOOG
Flight info
| Callsign | CGNBR |
|---|---|
| Flight time | 1h 9m |
| Altitude | 2500 |
| Route | CIX VFR CLUB-2026-04-13-MELS MAD MONDAYS-VFR LEON MBA (FOOL) TO PORT GENTIL (FOOG) (175 NM) ROUTE FOOL FOGR FOOG |
| Aircraft | BE36/L-V/N |
Departure
| Time | 2026-04-13 18:15 |
|---|---|
| Airport | Libreville Leon M'ba International Airport (FOOL) |
Arrival
| Time | 2026-04-13 19:25 |
|---|---|
| Airport | Port Gentil International Airport (FOOG) |
| Time | Latitude | Longitude | Altitude | Speed | Heading |
|---|---|---|---|---|---|
| 2026-04-13 17:44 | 0.45379 | 9.41232 | 32 ft | 0 kts | 57° |
| 2026-04-13 18:07 | 0.45388 | 9.41247 | 32 ft | 10 kts | 55° |
| 2026-04-13 18:07 | 0.45467 | 9.41300 | 30 ft | 14 kts | 335° |
| 2026-04-13 18:07 | 0.45547 | 9.41264 | 28 ft | 12 kts | 355° |
| 2026-04-13 18:08 | 0.45620 | 9.41307 | 28 ft | 14 kts | 62° |
| 2026-04-13 18:08 | 0.45624 | 9.41315 | 28 ft | 4 kts | 65° |
| 2026-04-13 18:08 | 0.45655 | 9.41322 | 29 ft | 0 kts | 335° |
| 2026-04-13 18:09 | 0.45665 | 9.41317 | 30 ft | 3 kts | 333° |
| 2026-04-13 18:10 | 0.45677 | 9.41311 | 29 ft | 0 kts | 331° |
| 2026-04-13 18:10 | 0.45686 | 9.41306 | 29 ft | 0 kts | 334° |
| 2026-04-13 18:10 | 0.45949 | 9.41181 | 29 ft | 79 kts | 333° |
| 2026-04-13 18:11 | 0.46570 | 9.40879 | 169 ft | 110 kts | 339° |
| 2026-04-13 18:11 | 0.47271 | 9.40706 | 606 ft | 109 kts | 349° |
| 2026-04-13 18:11 | 0.48009 | 9.40270 | 578 ft | 145 kts | 302° |
| 2026-04-13 18:11 | 0.48188 | 9.39210 | 524 ft | 167 kts | 268° |
| 2026-04-13 18:12 | 0.45539 | 9.37399 | 290 ft | 192 kts | 154° |
| 2026-04-13 18:12 | 0.44636 | 9.38337 | 291 ft | 190 kts | 113° |
| 2026-04-13 18:13 | 0.44175 | 9.39549 | 293 ft | 189 kts | 116° |
| 2026-04-13 18:13 | 0.43589 | 9.40680 | 289 ft | 178 kts | 117° |
| 2026-04-13 18:13 | 0.43025 | 9.41753 | 284 ft | 170 kts | 117° |
| 2026-04-13 18:13 | 0.42805 | 9.42168 | 303 ft | 166 kts | 117° |
| 2026-04-13 18:14 | 0.42460 | 9.42905 | 356 ft | 160 kts | 113° |
| 2026-04-13 18:14 | 0.42191 | 9.43448 | 387 ft | 157 kts | 120° |
| 2026-04-13 18:14 | 0.41953 | 9.43808 | 412 ft | 156 kts | 129° |
| 2026-04-13 18:15 | 0.41210 | 9.44452 | 466 ft | 152 kts | 144° |
| 2026-04-13 18:15 | 0.40346 | 9.45066 | 540 ft | 154 kts | 145° |
| 2026-04-13 18:15 | 0.39456 | 9.45685 | 607 ft | 157 kts | 145° |
| 2026-04-13 18:15 | 0.38559 | 9.46308 | 707 ft | 156 kts | 146° |
| 2026-04-13 18:16 | 0.37665 | 9.46922 | 773 ft | 156 kts | 145° |
| 2026-04-13 18:16 | 0.36774 | 9.47544 | 836 ft | 156 kts | 146° |
| 2026-04-13 18:16 | 0.35886 | 9.48167 | 905 ft | 156 kts | 145° |
| 2026-04-13 18:16 | 0.35013 | 9.48781 | 973 ft | 156 kts | 146° |
| 2026-04-13 18:17 | 0.34110 | 9.49411 | 1043 ft | 157 kts | 146° |
| 2026-04-13 18:17 | 0.33214 | 9.50038 | 1110 ft | 157 kts | 146° |
| 2026-04-13 18:17 | 0.32321 | 9.50663 | 1181 ft | 157 kts | 146° |
| 2026-04-13 18:17 | 0.31435 | 9.51281 | 1252 ft | 157 kts | 146° |
| 2026-04-13 18:18 | 0.30537 | 9.51909 | 1326 ft | 158 kts | 146° |
| 2026-04-13 18:18 | 0.29636 | 9.52539 | 1405 ft | 158 kts | 146° |
| 2026-04-13 18:18 | 0.28736 | 9.53168 | 1477 ft | 157 kts | 146° |
| 2026-04-13 18:18 | 0.27839 | 9.53796 | 1551 ft | 157 kts | 146° |
| 2026-04-13 18:19 | 0.26944 | 9.54421 | 1626 ft | 157 kts | 146° |
| 2026-04-13 18:19 | 0.26048 | 9.55047 | 1699 ft | 157 kts | 146° |
| 2026-04-13 18:19 | 0.25150 | 9.55674 | 1770 ft | 157 kts | 146° |
| 2026-04-13 18:19 | 0.24250 | 9.56304 | 1847 ft | 157 kts | 146° |
| 2026-04-13 18:20 | 0.23352 | 9.56930 | 1863 ft | 161 kts | 146° |
| 2026-04-13 18:20 | 0.22423 | 9.57581 | 1867 ft | 164 kts | 146° |
| 2026-04-13 18:20 | 0.21478 | 9.58241 | 1871 ft | 167 kts | 146° |
| 2026-04-13 18:20 | 0.20519 | 9.58909 | 1874 ft | 169 kts | 146° |
| 2026-04-13 18:21 | 0.19557 | 9.59584 | 1873 ft | 169 kts | 146° |
| 2026-04-13 18:21 | 0.18593 | 9.60257 | 1875 ft | 170 kts | 146° |
| 2026-04-13 18:21 | 0.17623 | 9.60934 | 1876 ft | 170 kts | 146° |
| 2026-04-13 18:21 | 0.16653 | 9.61612 | 1876 ft | 170 kts | 146° |
| 2026-04-13 18:22 | 0.15688 | 9.62287 | 1875 ft | 169 kts | 146° |
| 2026-04-13 18:22 | 0.14721 | 9.62963 | 1880 ft | 169 kts | 146° |
| 2026-04-13 18:22 | 0.13752 | 9.63640 | 1880 ft | 169 kts | 146° |
| 2026-04-13 18:22 | 0.12800 | 9.64305 | 1880 ft | 169 kts | 146° |
| 2026-04-13 18:23 | 0.11831 | 9.64982 | 1877 ft | 170 kts | 146° |
| 2026-04-13 18:23 | 0.10865 | 9.65659 | 1879 ft | 170 kts | 146° |
| 2026-04-13 18:23 | 0.09892 | 9.66335 | 1882 ft | 171 kts | 146° |
| 2026-04-13 18:23 | 0.08915 | 9.67019 | 1879 ft | 171 kts | 146° |
| 2026-04-13 18:24 | 0.07940 | 9.67702 | 1880 ft | 170 kts | 146° |
| 2026-04-13 18:24 | 0.06972 | 9.68378 | 1879 ft | 170 kts | 146° |
| 2026-04-13 18:24 | 0.06003 | 9.69055 | 1881 ft | 170 kts | 147° |
| 2026-04-13 18:24 | 0.05026 | 9.69730 | 1881 ft | 171 kts | 146° |
| 2026-04-13 18:25 | 0.04054 | 9.70409 | 1881 ft | 170 kts | 146° |
| 2026-04-13 18:25 | 0.03086 | 9.71088 | 1880 ft | 170 kts | 146° |
| 2026-04-13 18:25 | 0.02138 | 9.71752 | 1876 ft | 166 kts | 146° |
| 2026-04-13 18:25 | 0.01196 | 9.72411 | 1867 ft | 160 kts | 146° |
| 2026-04-13 18:26 | 0.00308 | 9.73034 | 1866 ft | 156 kts | 146° |
| 2026-04-13 18:26 | -0.00573 | 9.73649 | 1867 ft | 154 kts | 146° |
| 2026-04-13 18:26 | -0.01445 | 9.74258 | 1867 ft | 152 kts | 147° |
| 2026-04-13 18:26 | -0.02308 | 9.74862 | 1872 ft | 151 kts | 146° |
| 2026-04-13 18:27 | -0.03170 | 9.75464 | 1869 ft | 151 kts | 147° |
| 2026-04-13 18:27 | -0.04028 | 9.76063 | 1870 ft | 150 kts | 147° |
| 2026-04-13 18:27 | -0.04885 | 9.76664 | 1870 ft | 151 kts | 147° |
| 2026-04-13 18:27 | -0.05746 | 9.77263 | 1870 ft | 151 kts | 146° |
| 2026-04-13 18:28 | -0.06608 | 9.77866 | 1872 ft | 151 kts | 147° |
| 2026-04-13 18:28 | -0.07470 | 9.78470 | 1872 ft | 152 kts | 147° |
| 2026-04-13 18:28 | -0.08338 | 9.79075 | 1872 ft | 152 kts | 147° |
| 2026-04-13 18:28 | -0.09200 | 9.79677 | 1872 ft | 151 kts | 147° |
| 2026-04-13 18:29 | -0.10058 | 9.80279 | 1871 ft | 150 kts | 146° |
| 2026-04-13 18:29 | -0.10899 | 9.80866 | 1870 ft | 149 kts | 147° |
| 2026-04-13 18:29 | -0.11752 | 9.81460 | 1869 ft | 149 kts | 147° |
| 2026-04-13 18:29 | -0.12603 | 9.82057 | 1872 ft | 149 kts | 146° |
| 2026-04-13 18:30 | -0.13452 | 9.82650 | 1874 ft | 148 kts | 147° |
| 2026-04-13 18:30 | -0.14300 | 9.83242 | 1875 ft | 149 kts | 147° |
| 2026-04-13 18:30 | -0.15154 | 9.83836 | 1869 ft | 149 kts | 147° |
| 2026-04-13 18:30 | -0.16006 | 9.84434 | 1869 ft | 150 kts | 147° |
| 2026-04-13 18:31 | -0.16571 | 9.84830 | 1869 ft | 149 kts | 147° |
| 2026-04-13 18:31 | -0.17420 | 9.85422 | 1869 ft | 148 kts | 147° |
| 2026-04-13 18:31 | -0.18262 | 9.86011 | 1870 ft | 147 kts | 147° |
| 2026-04-13 18:31 | -0.19101 | 9.86597 | 1870 ft | 147 kts | 147° |
| 2026-04-13 18:32 | -0.19942 | 9.87183 | 1869 ft | 148 kts | 146° |
| 2026-04-13 18:32 | -0.20784 | 9.87773 | 1871 ft | 148 kts | 147° |
| 2026-04-13 18:32 | -0.21629 | 9.88364 | 1873 ft | 149 kts | 147° |
| 2026-04-13 18:32 | -0.22483 | 9.88960 | 1875 ft | 150 kts | 147° |
| 2026-04-13 18:33 | -0.23341 | 9.89560 | 1880 ft | 151 kts | 147° |
| 2026-04-13 18:33 | -0.24202 | 9.90161 | 1882 ft | 151 kts | 147° |
| 2026-04-13 18:33 | -0.25054 | 9.90756 | 1880 ft | 151 kts | 146° |
| 2026-04-13 18:34 | -0.26760 | 9.91949 | 1879 ft | 149 kts | 147° |
| 2026-04-13 18:34 | -0.27606 | 9.92540 | 1879 ft | 149 kts | 147° |
| 2026-04-13 18:34 | -0.28457 | 9.93136 | 1880 ft | 150 kts | 146° |
| 2026-04-13 18:34 | -0.29317 | 9.93737 | 1880 ft | 151 kts | 147° |
| 2026-04-13 18:35 | -0.30180 | 9.94338 | 1884 ft | 151 kts | 147° |
| 2026-04-13 18:35 | -0.31042 | 9.94941 | 1883 ft | 151 kts | 146° |
| 2026-04-13 18:35 | -0.31900 | 9.95541 | 1884 ft | 150 kts | 146° |
| 2026-04-13 18:35 | -0.32758 | 9.96140 | 1885 ft | 151 kts | 146° |
| 2026-04-13 18:36 | -0.33618 | 9.96741 | 1883 ft | 150 kts | 146° |
| 2026-04-13 18:36 | -0.34462 | 9.97332 | 1882 ft | 150 kts | 146° |
| 2026-04-13 18:36 | -0.35315 | 9.97927 | 1882 ft | 150 kts | 147° |
| 2026-04-13 18:36 | -0.36170 | 9.98526 | 1884 ft | 150 kts | 147° |
| 2026-04-13 18:37 | -0.37024 | 9.99120 | 1885 ft | 149 kts | 147° |
| 2026-04-13 18:37 | -0.37875 | 9.99718 | 1885 ft | 150 kts | 147° |
| 2026-04-13 18:37 | -0.38730 | 10.00312 | 1883 ft | 149 kts | 147° |
| 2026-04-13 18:37 | -0.39577 | 10.00907 | 1885 ft | 148 kts | 147° |
| 2026-04-13 18:38 | -0.40421 | 10.01496 | 1881 ft | 147 kts | 147° |
| 2026-04-13 18:38 | -0.41261 | 10.02083 | 1882 ft | 147 kts | 147° |
| 2026-04-13 18:38 | -0.42108 | 10.02671 | 1881 ft | 148 kts | 147° |
| 2026-04-13 18:38 | -0.42932 | 10.03253 | 1881 ft | 147 kts | 147° |
| 2026-04-13 18:39 | -0.43770 | 10.03835 | 1878 ft | 146 kts | 147° |
| 2026-04-13 18:39 | -0.44601 | 10.04419 | 1880 ft | 146 kts | 147° |
| 2026-04-13 18:39 | -0.45438 | 10.05001 | 1883 ft | 147 kts | 147° |
| 2026-04-13 18:39 | -0.46277 | 10.05588 | 1883 ft | 147 kts | 146° |
| 2026-04-13 18:40 | -0.47128 | 10.06190 | 1885 ft | 153 kts | 146° |
| 2026-04-13 18:40 | -0.48013 | 10.06813 | 1893 ft | 158 kts | 146° |
| 2026-04-13 18:40 | -0.48926 | 10.07449 | 1898 ft | 161 kts | 146° |
| 2026-04-13 18:40 | -0.49856 | 10.08097 | 1899 ft | 165 kts | 147° |
| 2026-04-13 18:41 | -0.50799 | 10.08747 | 1898 ft | 167 kts | 147° |
| 2026-04-13 18:41 | -0.51752 | 10.09410 | 1898 ft | 167 kts | 147° |
| 2026-04-13 18:41 | -0.52701 | 10.10073 | 1897 ft | 167 kts | 147° |
| 2026-04-13 18:41 | -0.53649 | 10.10737 | 1896 ft | 166 kts | 146° |
| 2026-04-13 18:42 | -0.54594 | 10.11399 | 1901 ft | 166 kts | 146° |
| 2026-04-13 18:42 | -0.55544 | 10.12063 | 1901 ft | 166 kts | 146° |
| 2026-04-13 18:42 | -0.56493 | 10.12725 | 1901 ft | 167 kts | 146° |
| 2026-04-13 18:42 | -0.57398 | 10.13360 | 1892 ft | 151 kts | 146° |
| 2026-04-13 18:43 | -0.58178 | 10.13916 | 1879 ft | 129 kts | 146° |
| 2026-04-13 18:43 | -0.58891 | 10.14411 | 1879 ft | 118 kts | 147° |
| 2026-04-13 18:43 | -0.59532 | 10.14858 | 1881 ft | 110 kts | 147° |
| 2026-04-13 18:43 | -0.60156 | 10.15295 | 1880 ft | 108 kts | 147° |
| 2026-04-13 18:44 | -0.60761 | 10.15713 | 1885 ft | 103 kts | 147° |
| 2026-04-13 18:44 | -0.61334 | 10.16112 | 1883 ft | 97 kts | 148° |
| 2026-04-13 18:44 | -0.61859 | 10.16477 | 1878 ft | 86 kts | 147° |
| 2026-04-13 18:44 | -0.62319 | 10.16797 | 1836 ft | 77 kts | 147° |
| 2026-04-13 18:45 | -0.62753 | 10.17097 | 1730 ft | 74 kts | 148° |
| 2026-04-13 18:45 | -0.63173 | 10.17394 | 1595 ft | 74 kts | 149° |
| 2026-04-13 18:45 | -0.63584 | 10.17695 | 1468 ft | 75 kts | 135° |
| 2026-04-13 18:45 | -0.63640 | 10.18224 | 1370 ft | 71 kts | 92° |
| 2026-04-13 18:46 | -0.63684 | 10.18388 | 1008 ft | 0 kts | 140° |
| 2026-04-13 18:46 | -0.64428 | 10.18971 | 670 ft | 163 kts | 132° |
| 2026-04-13 18:46 | -0.65205 | 10.19836 | 707 ft | 171 kts | 129° |
| 2026-04-13 18:46 | -0.66003 | 10.20780 | 656 ft | 180 kts | 131° |
| 2026-04-13 18:47 | -0.66748 | 10.21766 | 673 ft | 182 kts | 107° |
| 2026-04-13 18:47 | -0.66843 | 10.23046 | 649 ft | 184 kts | 96° |
| 2026-04-13 18:47 | -0.67012 | 10.24318 | 744 ft | 179 kts | 102° |
| 2026-04-13 18:47 | -0.67180 | 10.25533 | 925 ft | 169 kts | 78° |
| 2026-04-13 18:48 | -0.66371 | 10.26331 | 873 ft | 180 kts | 41° |
| 2026-04-13 18:48 | -0.65804 | 10.27332 | 1019 ft | 173 kts | 115° |
| 2026-04-13 18:48 | -0.66850 | 10.27188 | 703 ft | 186 kts | 218° |
| 2026-04-13 18:48 | -0.67809 | 10.26429 | 1035 ft | 168 kts | 218° |
| 2026-04-13 18:49 | -0.68710 | 10.25804 | 638 ft | 153 kts | 210° |
| 2026-04-13 18:49 | -0.69541 | 10.25332 | 227 ft | 123 kts | 220° |
| 2026-04-13 18:49 | -0.70056 | 10.24867 | 61 ft | 76 kts | 223° |
| 2026-04-13 18:49 | -0.70235 | 10.24708 | 59 ft | 0 kts | 217° |
| 2026-04-13 18:50 | -0.70250 | 10.24698 | 60 ft | 21 kts | 214° |
| 2026-04-13 18:50 | -0.70559 | 10.24424 | 61 ft | 91 kts | 220° |
| 2026-04-13 18:50 | -0.71125 | 10.23944 | 175 ft | 114 kts | 220° |
| 2026-04-13 18:50 | -0.71560 | 10.23329 | 311 ft | 120 kts | 257° |
| 2026-04-13 18:51 | -0.71779 | 10.22418 | 386 ft | 144 kts | 246° |
| 2026-04-13 18:51 | -0.72150 | 10.21468 | 543 ft | 154 kts | 253° |
| 2026-04-13 18:51 | -0.72469 | 10.20425 | 703 ft | 159 kts | 252° |
| 2026-04-13 18:51 | -0.72803 | 10.19355 | 859 ft | 163 kts | 252° |
| 2026-04-13 18:52 | -0.73145 | 10.18265 | 1006 ft | 165 kts | 252° |
| 2026-04-13 18:52 | -0.73498 | 10.17165 | 1151 ft | 166 kts | 252° |
| 2026-04-13 18:52 | -0.73853 | 10.16063 | 1293 ft | 167 kts | 252° |
| 2026-04-13 18:52 | -0.74209 | 10.14961 | 1439 ft | 166 kts | 252° |
| 2026-04-13 18:53 | -0.74560 | 10.13863 | 1588 ft | 166 kts | 253° |
| 2026-04-13 18:53 | -0.74892 | 10.12760 | 1732 ft | 165 kts | 260° |
| 2026-04-13 18:53 | -0.74931 | 10.11618 | 1877 ft | 165 kts | 271° |
| 2026-04-13 18:53 | -0.74918 | 10.10448 | 1891 ft | 172 kts | 271° |
| 2026-04-13 18:54 | -0.74905 | 10.09237 | 1894 ft | 176 kts | 271° |
| 2026-04-13 18:54 | -0.74888 | 10.08010 | 1899 ft | 178 kts | 271° |
| 2026-04-13 18:54 | -0.74874 | 10.06771 | 1903 ft | 179 kts | 271° |
| 2026-04-13 18:54 | -0.74860 | 10.05521 | 1904 ft | 180 kts | 271° |
| 2026-04-13 18:55 | -0.74845 | 10.04269 | 1900 ft | 180 kts | 271° |
| 2026-04-13 18:55 | -0.74831 | 10.03030 | 1901 ft | 181 kts | 271° |
| 2026-04-13 18:55 | -0.74811 | 10.01774 | 1903 ft | 181 kts | 271° |
| 2026-04-13 18:55 | -0.74792 | 10.00512 | 1902 ft | 181 kts | 271° |
| 2026-04-13 18:56 | -0.74777 | 9.99249 | 1902 ft | 182 kts | 271° |
| 2026-04-13 18:56 | -0.74762 | 9.97985 | 1905 ft | 182 kts | 271° |
| 2026-04-13 18:56 | -0.74747 | 9.96722 | 1903 ft | 182 kts | 270° |
| 2026-04-13 18:56 | -0.74732 | 9.95460 | 1902 ft | 182 kts | 270° |
| 2026-04-13 18:57 | -0.74717 | 9.94195 | 1901 ft | 182 kts | 271° |
| 2026-04-13 18:57 | -0.74703 | 9.92933 | 1902 ft | 182 kts | 271° |
| 2026-04-13 18:57 | -0.74688 | 9.91703 | 1903 ft | 169 kts | 271° |
| 2026-04-13 18:57 | -0.74675 | 9.90589 | 1887 ft | 152 kts | 270° |
| 2026-04-13 18:58 | -0.74666 | 9.89580 | 1885 ft | 139 kts | 271° |
| 2026-04-13 18:58 | -0.74656 | 9.88650 | 1885 ft | 129 kts | 270° |
| 2026-04-13 18:58 | -0.74646 | 9.87778 | 1888 ft | 123 kts | 270° |
| 2026-04-13 18:58 | -0.74638 | 9.86943 | 1889 ft | 118 kts | 271° |
| 2026-04-13 18:59 | -0.74628 | 9.86132 | 1891 ft | 115 kts | 270° |
| 2026-04-13 18:59 | -0.74621 | 9.85341 | 1888 ft | 116 kts | 271° |
| 2026-04-13 18:59 | -0.74612 | 9.84549 | 1889 ft | 112 kts | 271° |
| 2026-04-13 18:59 | -0.74604 | 9.83780 | 1887 ft | 110 kts | 271° |
| 2026-04-13 19:00 | -0.74597 | 9.83269 | 1892 ft | 108 kts | 271° |
| 2026-04-13 19:00 | -0.74595 | 9.82303 | 1892 ft | 101 kts | 271° |
| 2026-04-13 19:00 | -0.74599 | 9.81603 | 1895 ft | 100 kts | 271° |
| 2026-04-13 19:00 | -0.74603 | 9.80915 | 1892 ft | 96 kts | 271° |
| 2026-04-13 19:01 | -0.74606 | 9.80270 | 1887 ft | 90 kts | 271° |
| 2026-04-13 19:01 | -0.74608 | 9.79664 | 1891 ft | 84 kts | 270° |
| 2026-04-13 19:01 | -0.74612 | 9.79085 | 1889 ft | 82 kts | 271° |
| 2026-04-13 19:01 | -0.74612 | 9.78540 | 1888 ft | 75 kts | 271° |
| 2026-04-13 19:02 | -0.74611 | 9.78043 | 1883 ft | 68 kts | 271° |
| 2026-04-13 19:02 | -0.74614 | 9.77580 | 1783 ft | 69 kts | 270° |
| 2026-04-13 19:02 | -0.74618 | 9.77059 | 1914 ft | 80 kts | 270° |
| 2026-04-13 19:02 | -0.74637 | 9.76484 | 2121 ft | 101 kts | 266° |
| 2026-04-13 19:03 | -0.74614 | 9.75939 | 2453 ft | 99 kts | 276° |
| 2026-04-13 19:03 | -0.74589 | 9.75075 | 2505 ft | 121 kts | 274° |
| 2026-04-13 19:03 | -0.74587 | 9.74294 | 3005 ft | 112 kts | 271° |
| 2026-04-13 19:03 | -0.74692 | 9.73342 | 2735 ft | 156 kts | 253° |
| 2026-04-13 19:04 | -0.74877 | 9.72222 | 2555 ft | 174 kts | 269° |
| 2026-04-13 19:04 | -0.74881 | 9.70955 | 2277 ft | 189 kts | 270° |
| 2026-04-13 19:04 | -0.74884 | 9.69614 | 1989 ft | 197 kts | 270° |
| 2026-04-13 19:04 | -0.74885 | 9.68221 | 1695 ft | 203 kts | 270° |
| 2026-04-13 19:05 | -0.74882 | 9.66818 | 1422 ft | 203 kts | 271° |
| 2026-04-13 19:05 | -0.74866 | 9.65446 | 1407 ft | 188 kts | 271° |
| 2026-04-13 19:05 | -0.74854 | 9.64193 | 1400 ft | 179 kts | 271° |
| 2026-04-13 19:05 | -0.74844 | 9.62969 | 1393 ft | 174 kts | 271° |
| 2026-04-13 19:06 | -0.74835 | 9.61773 | 1397 ft | 171 kts | 271° |
| 2026-04-13 19:06 | -0.74827 | 9.60592 | 1396 ft | 169 kts | 271° |
| 2026-04-13 19:06 | -0.74822 | 9.59420 | 1396 ft | 168 kts | 271° |
| 2026-04-13 19:06 | -0.74816 | 9.58251 | 1395 ft | 168 kts | 270° |
| 2026-04-13 19:07 | -0.74811 | 9.57085 | 1393 ft | 168 kts | 271° |
| 2026-04-13 19:07 | -0.74807 | 9.55920 | 1395 ft | 168 kts | 270° |
| 2026-04-13 19:07 | -0.74802 | 9.54752 | 1393 ft | 167 kts | 270° |
| 2026-04-13 19:07 | -0.74798 | 9.53606 | 1395 ft | 167 kts | 270° |
| 2026-04-13 19:08 | -0.74792 | 9.52448 | 1393 ft | 166 kts | 271° |
| 2026-04-13 19:08 | -0.74787 | 9.51291 | 1394 ft | 167 kts | 271° |
| 2026-04-13 19:08 | -0.74782 | 9.50133 | 1394 ft | 167 kts | 270° |
| 2026-04-13 19:08 | -0.74777 | 9.48970 | 1393 ft | 167 kts | 270° |
| 2026-04-13 19:09 | -0.74772 | 9.47806 | 1393 ft | 167 kts | 270° |
| 2026-04-13 19:09 | -0.74767 | 9.46645 | 1393 ft | 167 kts | 270° |
| 2026-04-13 19:09 | -0.74762 | 9.45487 | 1397 ft | 167 kts | 271° |
| 2026-04-13 19:09 | -0.74759 | 9.44327 | 1399 ft | 166 kts | 271° |
| 2026-04-13 19:10 | -0.74758 | 9.43170 | 1397 ft | 167 kts | 270° |
| 2026-04-13 19:10 | -0.74756 | 9.42012 | 1398 ft | 167 kts | 270° |
| 2026-04-13 19:10 | -0.74757 | 9.40861 | 1399 ft | 167 kts | 271° |
| 2026-04-13 19:10 | -0.74759 | 9.39696 | 1398 ft | 168 kts | 270° |
| 2026-04-13 19:11 | -0.74761 | 9.38528 | 1398 ft | 167 kts | 270° |
| 2026-04-13 19:11 | -0.74761 | 9.37365 | 1398 ft | 167 kts | 270° |
| 2026-04-13 19:11 | -0.74760 | 9.36215 | 1398 ft | 167 kts | 271° |
| 2026-04-13 19:11 | -0.74759 | 9.35056 | 1399 ft | 167 kts | 270° |
| 2026-04-13 19:12 | -0.74757 | 9.33892 | 1398 ft | 167 kts | 270° |
| 2026-04-13 19:12 | -0.74756 | 9.32731 | 1398 ft | 167 kts | 270° |
| 2026-04-13 19:12 | -0.74756 | 9.31569 | 1398 ft | 167 kts | 270° |
| 2026-04-13 19:12 | -0.74756 | 9.30405 | 1399 ft | 170 kts | 270° |
| 2026-04-13 19:13 | -0.74756 | 9.29223 | 1495 ft | 172 kts | 270° |
| 2026-04-13 19:13 | -0.74762 | 9.28012 | 1500 ft | 177 kts | 270° |
| 2026-04-13 19:13 | -0.74765 | 9.26771 | 1505 ft | 180 kts | 270° |
| 2026-04-13 19:13 | -0.74768 | 9.25514 | 1508 ft | 181 kts | 270° |
| 2026-04-13 19:14 | -0.74771 | 9.24250 | 1510 ft | 182 kts | 270° |
| 2026-04-13 19:14 | -0.74773 | 9.22979 | 1506 ft | 183 kts | 270° |
| 2026-04-13 19:14 | -0.74775 | 9.21721 | 1505 ft | 184 kts | 270° |
| 2026-04-13 19:14 | -0.74779 | 9.20428 | 1505 ft | 184 kts | 270° |
| 2026-04-13 19:15 | -0.74781 | 9.19152 | 1506 ft | 184 kts | 270° |
| 2026-04-13 19:15 | -0.74784 | 9.17893 | 1508 ft | 184 kts | 270° |
| 2026-04-13 19:15 | -0.74787 | 9.16612 | 1505 ft | 184 kts | 270° |
| 2026-04-13 19:15 | -0.74790 | 9.15332 | 1503 ft | 184 kts | 270° |
| 2026-04-13 19:16 | -0.74792 | 9.14056 | 1504 ft | 184 kts | 270° |
| 2026-04-13 19:16 | -0.74793 | 9.12781 | 1503 ft | 184 kts | 270° |
| 2026-04-13 19:16 | -0.74794 | 9.11918 | 1504 ft | 184 kts | 270° |
| 2026-04-13 19:16 | -0.74795 | 9.10638 | 1503 ft | 184 kts | 270° |
| 2026-04-13 19:17 | -0.74797 | 9.09378 | 1504 ft | 184 kts | 270° |
| 2026-04-13 19:17 | -0.74801 | 9.08100 | 1500 ft | 184 kts | 270° |
| 2026-04-13 19:17 | -0.74801 | 9.06819 | 1500 ft | 184 kts | 270° |
| 2026-04-13 19:17 | -0.74800 | 9.05537 | 1499 ft | 184 kts | 270° |
| 2026-04-13 19:18 | -0.74797 | 9.04258 | 1501 ft | 184 kts | 270° |
| 2026-04-13 19:18 | -0.74794 | 9.02980 | 1502 ft | 184 kts | 270° |
| 2026-04-13 19:18 | -0.74792 | 9.01707 | 1502 ft | 183 kts | 270° |
| 2026-04-13 19:18 | -0.74790 | 9.00431 | 1502 ft | 183 kts | 270° |
| 2026-04-13 19:19 | -0.74791 | 8.99155 | 1497 ft | 184 kts | 270° |
| 2026-04-13 19:19 | -0.74792 | 8.97877 | 1498 ft | 184 kts | 270° |
| 2026-04-13 19:19 | -0.74755 | 8.96601 | 1488 ft | 185 kts | 275° |
| 2026-04-13 19:19 | -0.74641 | 8.95299 | 1366 ft | 190 kts | 276° |
| 2026-04-13 19:20 | -0.74467 | 8.93984 | 1246 ft | 192 kts | 278° |
| 2026-04-13 19:20 | -0.74289 | 8.92657 | 1125 ft | 193 kts | 278° |
| 2026-04-13 19:20 | -0.74027 | 8.91332 | 1013 ft | 194 kts | 284° |
| 2026-04-13 19:20 | -0.73684 | 8.90044 | 1006 ft | 190 kts | 285° |
| 2026-04-13 19:21 | -0.73341 | 8.88777 | 1007 ft | 187 kts | 285° |
| 2026-04-13 19:21 | -0.73001 | 8.87528 | 1005 ft | 186 kts | 285° |
| 2026-04-13 19:21 | -0.72666 | 8.86302 | 1004 ft | 185 kts | 285° |
| 2026-04-13 19:21 | -0.72413 | 8.85050 | 1001 ft | 185 kts | 273° |
| 2026-04-13 19:22 | -0.72393 | 8.83768 | 1000 ft | 184 kts | 271° |
| 2026-04-13 19:22 | -0.72383 | 8.82489 | 1000 ft | 184 kts | 271° |
| 2026-04-13 19:22 | -0.72376 | 8.81207 | 999 ft | 184 kts | 271° |
| 2026-04-13 19:22 | -0.72371 | 8.79930 | 998 ft | 184 kts | 270° |
| 2026-04-13 19:23 | -0.72366 | 8.78655 | 993 ft | 184 kts | 271° |
| 2026-04-13 19:23 | -0.71969 | 8.77471 | 983 ft | 183 kts | 309° |
| 2026-04-13 19:23 | -0.70801 | 8.77269 | 555 ft | 195 kts | 18° |
| 2026-04-13 19:23 | -0.69585 | 8.77330 | 497 ft | 173 kts | 313° |
| 2026-04-13 19:24 | -0.69838 | 8.76486 | 293 ft | 126 kts | 230° |
| 2026-04-13 19:24 | -0.70384 | 8.75829 | 73 ft | 118 kts | 219° |
| 2026-04-13 19:24 | -0.71011 | 8.75511 | 18 ft | 83 kts | 202° |
| 2026-04-13 19:24 | -0.71555 | 8.75297 | 15 ft | 84 kts | 198° |
| 2026-04-13 19:25 | -0.71907 | 8.75253 | 15 ft | 35 kts | 146° |
| 2026-04-13 19:25 | -0.71855 | 8.75352 | 14 ft | 23 kts | 11° |
| 2026-04-13 19:25 | -0.71908 | 8.75295 | 15 ft | 33 kts | 186° |
| 2026-04-13 19:25 | -0.72059 | 8.75246 | 15 ft | 11 kts | 264° |
| 2026-04-13 19:26 | -0.72056 | 8.75228 | 15 ft | 0 kts | 295° |